Time;durP1;ratioP1;P1;durP2;ratioP2;P2;SDS_P1;SDS_P2;PMS_P1;PMS_P2;Temp;Humidity;BMP_temperature;BMP_pressure;BME280_temperature;BME280_humidity;BME280_pressure;Samples;Min_cycle;Max_cycle;Signal;HPM_P1;HPM_P2
2023/10/30 00:01:49;;;;;;;0.52;0.50;;;;;;;;;;5039436;28;20217;-57
2023/10/30 00:04:18;;;;;;;0.60;0.60;;;;;;;;;;5039923;28;20209;-58
2023/10/30 00:06:45;;;;;;;0.60;0.60;;;;;;;;;;5039151;28;20213;-58
2023/10/30 00:09:15;;;;;;;0.50;0.50;;;;;;;;;;5039774;28;20574;-58
2023/10/30 00:11:43;;;;;;;1.05;0.55;;;;;;;;;;5039571;28;20304;-58
2023/10/30 00:14:10;;;;;;;0.68;0.57;;;;;;;;;;5038248;28;20226;-58
2023/10/30 00:16:39;;;;;;;0.50;0.50;;;;;;;;;;5039608;28;20217;-58
2023/10/30 00:19:06;;;;;;;0.50;0.40;;;;;;;;;;5039338;28;20299;-58
2023/10/30 00:21:33;;;;;;;0.70;0.60;;;;;;;;;;5039220;28;20205;-58
2023/10/30 00:24:01;;;;;;;0.73;0.57;;;;;;;;;;5039342;28;20296;-57
2023/10/30 00:26:29;;;;;;;0.70;0.60;;;;;;;;;;5039167;28;20212;-57
2023/10/30 00:28:57;;;;;;;0.70;0.50;;;;;;;;;;5038942;28;20551;-58
2023/10/30 00:31:25;;;;;;;0.40;0.40;;;;;;;;;;5038960;28;20665;-58
2023/10/30 00:33:54;;;;;;;0.57;0.50;;;;;;;;;;5038736;28;20230;-58
2023/10/30 00:36:22;;;;;;;0.65;0.50;;;;;;;;;;5038571;28;20205;-58
2023/10/30 00:38:49;;;;;;;0.40;0.40;;;;;;;;;;5039014;28;20206;-58
2023/10/30 00:41:16;;;;;;;0.50;0.50;;;;;;;;;;5038726;28;20426;-58
2023/10/30 00:43:44;;;;;;;0.80;0.60;;;;;;;;;;5039081;28;20209;-58
2023/10/30 00:46:11;;;;;;;0.50;0.50;;;;;;;;;;5038697;28;20514;-58
2023/10/30 00:48:39;;;;;;;0.80;0.40;;;;;;;;;;5038924;28;20205;-58
2023/10/30 00:51:07;;;;;;;0.50;0.40;;;;;;;;;;5038565;28;20242;-58
2023/10/30 00:53:35;;;;;;;0.70;0.68;;;;;;;;;;5039166;28;20225;-58
2023/10/30 00:56:02;;;;;;;0.40;0.40;;;;;;;;;;5038635;28;20206;-58
2023/10/30 00:58:30;;;;;;;0.77;0.60;;;;;;;;;;5038659;28;20221;-58
2023/10/30 01:00:57;;;;;;;0.70;0.50;;;;;;;;;;5038358;28;20198;-57
2023/10/30 01:03:24;;;;;;;0.68;0.60;;;;;;;;;;5038804;28;20216;-57
2023/10/30 01:05:57;;;;;;;0.70;0.52;;;;;;;;;;5038826;28;20206;-57
2023/10/30 01:08:27;;;;;;;0.40;0.40;;;;;;;;;;5038476;28;20593;-57
2023/10/30 01:10:55;;;;;;;0.40;0.40;;;;;;;;;;5038123;28;20197;-57
2023/10/30 01:13:23;;;;;;;1.20;0.60;;;;;;;;;;5038116;28;20233;-57
2023/10/30 01:15:53;;;;;;;0.40;0.40;;;;;;;;;;5037633;28;20216;-58
2023/10/30 01:18:20;;;;;;;0.63;0.60;;;;;;;;;;5038320;28;20205;-57
2023/10/30 01:20:48;;;;;;;0.55;0.50;;;;;;;;;;5038165;28;20206;-57
2023/10/30 01:23:15;;;;;;;0.50;0.50;;;;;;;;;;5038289;28;20247;-57
2023/10/30 01:25:46;;;;;;;0.93;0.40;;;;;;;;;;5038526;28;20205;-57
2023/10/30 01:28:13;;;;;;;1.00;0.47;;;;;;;;;;5038278;28;20236;-57
2023/10/30 01:30:40;;;;;;;0.50;0.50;;;;;;;;;;5038125;28;20280;-57
2023/10/30 01:33:08;;;;;;;0.98;0.57;;;;;;;;;;5038278;28;20232;-57
2023/10/30 01:35:36;;;;;;;0.70;0.50;;;;;;;;;;5038079;28;20229;-57
2023/10/30 01:38:04;;;;;;;0.50;0.40;;;;;;;;;;5037807;28;20232;-57
2023/10/30 01:40:31;;;;;;;0.40;0.40;;;;;;;;;;5037734;28;20506;-57
2023/10/30 01:43:01;;;;;;;0.45;0.30;;;;;;;;;;5037627;28;20217;-57
2023/10/30 01:45:28;;;;;;;0.52;0.40;;;;;;;;;;5038117;28;20267;-57
2023/10/30 01:47:55;;;;;;;0.40;0.40;;;;;;;;;;5038273;28;20206;-57
2023/10/30 01:50:23;;;;;;;0.63;0.55;;;;;;;;;;5037701;28;20209;-57
2023/10/30 01:52:50;;;;;;;0.68;0.40;;;;;;;;;;5037403;28;20249;-57
2023/10/30 01:55:18;;;;;;;0.43;0.40;;;;;;;;;;5037564;28;20634;-57
2023/10/30 01:57:46;;;;;;;0.55;0.43;;;;;;;;;;5037303;28;20490;-57
2023/10/30 02:00:16;;;;;;;0.50;0.50;;;;;;;;;;5036956;28;20498;-57
2023/10/30 02:02:44;;;;;;;0.70;0.50;;;;;;;;;;5037346;28;20214;-57
2023/10/30 02:05:13;;;;;;;0.68;0.40;;;;;;;;;;5037471;28;20263;-57
2023/10/30 02:07:41;;;;;;;0.65;0.50;;;;;;;;;;5037582;28;20260;-57
2023/10/30 02:10:09;;;;;;;0.50;0.50;;;;;;;;;;5037326;28;20213;-57
2023/10/30 02:12:36;;;;;;;0.52;0.50;;;;;;;;;;5037448;28;20216;-57
2023/10/30 02:15:04;;;;;;;1.45;0.52;;;;;;;;;;5037448;28;20235;-57
2023/10/30 02:17:33;;;;;;;0.52;0.50;;;;;;;;;;5037699;28;20271;-57
2023/10/30 02:20:00;;;;;;;0.52;0.50;;;;;;;;;;5037314;28;20224;-57
2023/10/30 02:22:28;;;;;;;0.70;0.40;;;;;;;;;;5036876;28;20205;-57
2023/10/30 02:24:55;;;;;;;1.15;0.50;;;;;;;;;;5037306;28;20202;-57
2023/10/30 02:27:24;;;;;;;0.40;0.40;;;;;;;;;;5037366;28;20212;-57
2023/10/30 02:29:51;;;;;;;1.85;0.50;;;;;;;;;;5037653;28;20271;-57
2023/10/30 02:32:18;;;;;;;1.52;0.50;;;;;;;;;;5037520;28;20262;-57
2023/10/30 02:34:46;;;;;;;0.73;0.63;;;;;;;;;;5037188;28;20234;-57
2023/10/30 02:37:13;;;;;;;0.57;0.45;;;;;;;;;;5037124;28;20217;-57
2023/10/30 02:39:40;;;;;;;0.57;0.50;;;;;;;;;;5037340;28;20470;-57
2023/10/30 02:42:08;;;;;;;0.73;0.40;;;;;;;;;;5037145;28;20304;-57
2023/10/30 02:44:37;;;;;;;0.60;0.47;;;;;;;;;;5036953;28;20562;-57
2023/10/30 02:47:05;;;;;;;0.50;0.50;;;;;;;;;;5036972;28;20270;-57
2023/10/30 02:49:33;;;;;;;0.45;0.30;;;;;;;;;;5037106;28;20600;-57
2023/10/30 02:52:00;;;;;;;0.43;0.43;;;;;;;;;;5036748;28;20511;-57
2023/10/30 02:54:28;;;;;;;0.65;0.50;;;;;;;;;;5037083;28;20241;-57
2023/10/30 02:56:55;;;;;;;0.68;0.60;;;;;;;;;;5037079;28;20205;-57
2023/10/30 02:59:22;;;;;;;0.50;0.40;;;;;;;;;;5036902;28;20216;-57
2023/10/30 03:01:51;;;;;;;0.63;0.40;;;;;;;;;;5037077;28;20213;-57
2023/10/30 03:04:18;;;;;;;1.23;0.43;;;;;;;;;;5036916;28;20213;-57
2023/10/30 03:06:46;;;;;;;0.85;0.40;;;;;;;;;;5036849;28;20223;-57
2023/10/30 03:09:13;;;;;;;0.57;0.30;;;;;;;;;;5037190;28;20210;-57
2023/10/30 03:11:40;;;;;;;0.85;0.50;;;;;;;;;;5036779;28;20616;-57
2023/10/30 03:14:08;;;;;;;0.60;0.43;;;;;;;;;;5036957;28;20215;-57
2023/10/30 03:16:35;;;;;;;0.63;0.40;;;;;;;;;;5036623;28;20217;-57
2023/10/30 03:19:04;;;;;;;0.40;0.40;;;;;;;;;;5036641;28;20198;-57
2023/10/30 03:21:31;;;;;;;0.60;0.40;;;;;;;;;;5036702;28;20205;-57
2023/10/30 03:23:59;;;;;;;0.40;0.40;;;;;;;;;;5036863;28;20205;-57
2023/10/30 03:26:26;;;;;;;1.17;0.40;;;;;;;;;;5036812;28;20260;-57
2023/10/30 03:28:53;;;;;;;0.75;0.40;;;;;;;;;;5036843;28;20205;-57
2023/10/30 03:31:21;;;;;;;0.43;0.43;;;;;;;;;;5036923;28;20216;-57
2023/10/30 03:33:48;;;;;;;1.05;0.32;;;;;;;;;;5036617;28;20609;-57
2023/10/30 03:36:21;;;;;;;0.98;0.40;;;;;;;;;;5040002;28;20225;-57
2023/10/30 03:38:48;;;;;;;1.05;0.47;;;;;;;;;;5040290;28;20205;-57
2023/10/30 03:41:15;;;;;;;0.50;0.50;;;;;;;;;;5039971;28;20209;-57
2023/10/30 03:43:43;;;;;;;1.00;0.50;;;;;;;;;;5040552;28;20487;-57
2023/10/30 03:46:11;;;;;;;1.20;0.60;;;;;;;;;;5039949;28;20208;-57
2023/10/30 03:48:38;;;;;;;0.50;0.50;;;;;;;;;;5039564;28;20205;-57
2023/10/30 03:51:06;;;;;;;0.40;0.40;;;;;;;;;;5039619;28;20518;-57
2023/10/30 03:53:35;;;;;;;0.90;0.40;;;;;;;;;;5040047;28;20237;-57
2023/10/30 03:56:06;;;;;;;1.13;0.50;;;;;;;;;;5039956;28;20621;-57
2023/10/30 03:58:33;;;;;;;0.60;0.40;;;;;;;;;;5040035;28;20202;-57
2023/10/30 04:01:05;;;;;;;0.60;0.40;;;;;;;;;;5039594;28;20209;-57
2023/10/30 04:03:33;;;;;;;0.50;0.40;;;;;;;;;;5040022;28;20293;-57
2023/10/30 04:06:01;;;;;;;0.75;0.40;;;;;;;;;;5039506;28;20206;-57
2023/10/30 04:08:28;;;;;;;1.05;0.43;;;;;;;;;;5039868;28;20336;-57
2023/10/30 04:10:57;;;;;;;0.60;0.43;;;;;;;;;;5039860;28;20205;-57
2023/10/30 04:13:25;;;;;;;0.57;0.40;;;;;;;;;;5039594;28;20240;-57
2023/10/30 04:15:52;;;;;;;0.68;0.60;;;;;;;;;;5039354;28;20238;-57
2023/10/30 04:18:19;;;;;;;0.40;0.40;;;;;;;;;;5039448;28;20616;-57
2023/10/30 04:20:47;;;;;;;0.38;0.35;;;;;;;;;;5039547;28;20217;-57
2023/10/30 04:23:15;;;;;;;0.80;0.35;;;;;;;;;;5039177;28;20219;-57
2023/10/30 04:25:42;;;;;;;0.40;0.30;;;;;;;;;;5039028;28;20206;-57
2023/10/30 04:28:11;;;;;;;0.40;0.40;;;;;;;;;;5039066;28;20664;-57
2023/10/30 04:30:38;;;;;;;0.43;0.32;;;;;;;;;;5039476;28;20214;-57
2023/10/30 04:33:05;;;;;;;0.55;0.35;;;;;;;;;;5038756;28;20228;-57
2023/10/30 04:35:33;;;;;;;1.40;0.40;;;;;;;;;;5038737;28;20233;-57
2023/10/30 04:38:00;;;;;;;0.95;0.50;;;;;;;;;;5039187;28;20210;-57
2023/10/30 04:40:27;;;;;;;0.73;0.40;;;;;;;;;;5038914;28;20202;-57
2023/10/30 04:42:55;;;;;;;0.47;0.32;;;;;;;;;;5038931;28;20215;-57
2023/10/30 04:45:23;;;;;;;0.60;0.40;;;;;;;;;;5038348;28;20197;-57
2023/10/30 04:47:51;;;;;;;0.50;0.40;;;;;;;;;;5038872;28;20206;-57
2023/10/30 04:50:18;;;;;;;0.50;0.38;;;;;;;;;;5039058;28;20522;-57
2023/10/30 04:52:46;;;;;;;0.30;0.30;;;;;;;;;;5038318;28;20521;-57
2023/10/30 04:55:13;;;;;;;0.65;0.50;;;;;;;;;;5038527;28;20236;-57
2023/10/30 04:57:40;;;;;;;0.50;0.40;;;;;;;;;;5022471;28;20297;-57
2023/10/30 05:00:09;;;;;;;0.50;0.50;;;;;;;;;;5018294;28;20206;-58
2023/10/30 05:02:37;;;;;;;0.68;0.40;;;;;;;;;;5017913;28;20308;-57
2023/10/30 05:05:05;;;;;;;1.02;0.40;;;;;;;;;;5018129;28;20210;-57
2023/10/30 05:07:33;;;;;;;0.40;0.40;;;;;;;;;;5018720;28;20214;-57
2023/10/30 05:10:00;;;;;;;0.57;0.28;;;;;;;;;;5018661;28;20506;-57
2023/10/30 05:12:27;;;;;;;0.77;0.50;;;;;;;;;;5018093;28;20205;-57
2023/10/30 05:14:55;;;;;;;0.40;0.40;;;;;;;;;;5017609;28;22531;-57
2023/10/30 05:17:22;;;;;;;0.43;0.30;;;;;;;;;;5017759;28;20652;-57
2023/10/30 05:19:51;;;;;;;0.30;0.28;;;;;;;;;;5017473;28;20206;-57
2023/10/30 05:22:18;;;;;;;0.63;0.50;;;;;;;;;;5017383;28;20206;-57
2023/10/30 05:24:46;;;;;;;0.30;0.30;;;;;;;;;;5017267;28;20233;-57
2023/10/30 05:27:13;;;;;;;0.60;0.30;;;;;;;;;;5017614;28;20206;-57
2023/10/30 05:29:40;;;;;;;0.50;0.40;;;;;;;;;;5017345;28;20217;-57
2023/10/30 05:32:08;;;;;;;0.68;0.30;;;;;;;;;;5017431;28;20206;-57
2023/10/30 05:34:36;;;;;;;0.40;0.40;;;;;;;;;;5017376;28;20210;-57
2023/10/30 05:37:07;;;;;;;0.45;0.30;;;;;;;;;;5016975;28;20230;-57
2023/10/30 05:39:34;;;;;;;0.22;0.22;;;;;;;;;;5017691;28;20224;-57
2023/10/30 05:42:02;;;;;;;0.30;0.30;;;;;;;;;;5017454;28;20491;-57
2023/10/30 05:44:31;;;;;;;0.40;0.30;;;;;;;;;;5017329;28;20210;-57
2023/10/30 05:46:59;;;;;;;0.60;0.60;;;;;;;;;;5016818;28;20202;-57
2023/10/30 05:49:26;;;;;;;0.88;0.20;;;;;;;;;;5016421;28;20202;-57
2023/10/30 05:51:54;;;;;;;0.45;0.32;;;;;;;;;;5016503;28;20684;-57
2023/10/30 05:54:23;;;;;;;0.40;0.32;;;;;;;;;;5017532;28;20217;-57
2023/10/30 05:56:50;;;;;;;0.60;0.50;;;;;;;;;;5016734;28;20511;-57
2023/10/30 05:59:18;;;;;;;0.40;0.35;;;;;;;;;;5017415;28;20563;-57
2023/10/30 06:01:47;;;;;;;0.32;0.30;;;;;;;;;;5016757;28;20210;-57
2023/10/30 06:04:15;;;;;;;0.30;0.30;;;;;;;;;;5016850;28;20217;-57
2023/10/30 06:06:42;;;;;;;0.30;0.30;;;;;;;;;;5016508;28;20593;-57
2023/10/30 06:09:09;;;;;;;0.50;0.30;;;;;;;;;;5017185;28;20304;-57
2023/10/30 06:11:38;;;;;;;0.70;0.40;;;;;;;;;;5016750;28;20206;-57
2023/10/30 06:14:07;;;;;;;0.40;0.40;;;;;;;;;;5016451;28;20217;-57
2023/10/30 06:16:34;;;;;;;0.63;0.40;;;;;;;;;;5016374;28;20253;-57
2023/10/30 06:19:02;;;;;;;0.55;0.30;;;;;;;;;;5016545;28;20217;-57
2023/10/30 06:21:29;;;;;;;0.40;0.20;;;;;;;;;;5016963;28;20202;-57
2023/10/30 06:23:57;;;;;;;0.50;0.45;;;;;;;;;;5016503;28;20207;-57
2023/10/30 06:26:24;;;;;;;0.75;0.40;;;;;;;;;;5016786;28;20212;-57
2023/10/30 06:28:53;;;;;;;0.40;0.30;;;;;;;;;;5017522;28;20210;-57
2023/10/30 06:31:21;;;;;;;0.30;0.30;;;;;;;;;;5016614;28;20213;-57
2023/10/30 06:33:48;;;;;;;0.47;0.30;;;;;;;;;;5036580;28;20300;-57
2023/10/30 06:36:16;;;;;;;0.40;0.20;;;;;;;;;;5035909;28;20233;-57
2023/10/30 06:38:43;;;;;;;0.50;0.38;;;;;;;;;;5036303;28;20470;-57
2023/10/30 06:41:11;;;;;;;0.30;0.30;;;;;;;;;;5035230;28;20216;-57
2023/10/30 06:43:39;;;;;;;0.40;0.40;;;;;;;;;;5035337;28;20589;-57
2023/10/30 06:46:08;;;;;;;0.80;0.40;;;;;;;;;;5035917;28;20309;-57
2023/10/30 06:48:35;;;;;;;0.77;0.40;;;;;;;;;;5036216;28;20205;-57
2023/10/30 06:51:03;;;;;;;0.40;0.20;;;;;;;;;;5035566;28;20238;-57
2023/10/30 06:53:30;;;;;;;0.70;0.40;;;;;;;;;;5035344;28;20603;-57
2023/10/30 06:55:58;;;;;;;1.13;0.40;;;;;;;;;;5035863;28;20225;-57
2023/10/30 06:58:25;;;;;;;0.60;0.50;;;;;;;;;;5036109;28;20205;-57
2023/10/30 07:00:53;;;;;;;0.73;0.50;;;;;;;;;;5028097;28;20221;-57
2023/10/30 07:03:21;;;;;;;0.40;0.40;;;;;;;;;;5020659;28;20224;-57
2023/10/30 07:05:49;;;;;;;1.05;0.50;;;;;;;;;;5032671;28;20561;-56
2023/10/30 07:08:16;;;;;;;0.52;0.30;;;;;;;;;;5033682;28;20248;-57
2023/10/30 07:10:44;;;;;;;0.98;0.45;;;;;;;;;;5019140;28;20221;-57
2023/10/30 07:13:11;;;;;;;0.50;0.40;;;;;;;;;;5020032;28;20488;-57
2023/10/30 07:15:38;;;;;;;0.68;0.38;;;;;;;;;;5019960;28;20229;-58
2023/10/30 07:18:05;;;;;;;0.88;0.40;;;;;;;;;;5032333;28;20200;-57
2023/10/30 07:20:34;;;;;;;0.55;0.50;;;;;;;;;;5038341;28;20513;-57
2023/10/30 07:23:02;;;;;;;0.38;0.38;;;;;;;;;;5038315;28;20206;-57
2023/10/30 07:25:29;;;;;;;1.17;0.50;;;;;;;;;;5038565;28;20205;-57
2023/10/30 07:27:57;;;;;;;0.60;0.40;;;;;;;;;;5038520;28;20216;-57
2023/10/30 07:30:25;;;;;;;0.60;0.40;;;;;;;;;;5038330;28;20318;-57
2023/10/30 07:32:52;;;;;;;0.40;0.40;;;;;;;;;;5038172;28;20240;-57
2023/10/30 07:35:20;;;;;;;0.60;0.35;;;;;;;;;;5023335;28;20202;-57
2023/10/30 07:37:48;;;;;;;0.30;0.30;;;;;;;;;;5018161;28;20743;-57
2023/10/30 07:40:16;;;;;;;0.52;0.50;;;;;;;;;;5019033;28;20557;-57
2023/10/30 07:42:43;;;;;;;0.60;0.50;;;;;;;;;;5018635;28;20206;-57
2023/10/30 07:45:12;;;;;;;0.45;0.43;;;;;;;;;;5019334;28;20237;-57
2023/10/30 07:47:40;;;;;;;0.52;0.40;;;;;;;;;;5019001;28;20233;-57
2023/10/30 07:50:08;;;;;;;0.43;0.40;;;;;;;;;;5018336;28;20241;-57
2023/10/30 07:52:35;;;;;;;0.55;0.40;;;;;;;;;;5018753;28;20644;-57
2023/10/30 07:55:05;;;;;;;1.52;0.65;;;;;;;;;;5019462;28;20214;-57
2023/10/30 07:57:32;;;;;;;0.80;0.40;;;;;;;;;;5018756;28;20226;-56
2023/10/30 07:59:59;;;;;;;0.93;0.70;;;;;;;;;;5018670;28;20214;-56
2023/10/30 08:02:27;;;;;;;0.80;0.55;;;;;;;;;;5018659;28;20210;-56
2023/10/30 08:04:56;;;;;;;1.67;0.60;;;;;;;;;;5024026;28;20210;-57
2023/10/30 08:07:25;;;;;;;0.70;0.65;;;;;;;;;;5017529;28;20202;-57
2023/10/30 08:09:55;;;;;;;0.52;0.50;;;;;;;;;;5018865;28;20337;-57
2023/10/30 08:12:25;;;;;;;1.30;0.50;;;;;;;;;;5017573;28;20272;-57
2023/10/30 08:14:54;;;;;;;0.70;0.50;;;;;;;;;;5018357;28;20609;-57
2023/10/30 08:17:22;;;;;;;0.93;0.43;;;;;;;;;;5018373;28;20606;-57
2023/10/30 08:19:50;;;;;;;0.63;0.50;;;;;;;;;;5017858;28;20209;-57
2023/10/30 08:22:18;;;;;;;0.63;0.40;;;;;;;;;;5018142;28;20237;-57
2023/10/30 08:24:46;;;;;;;0.40;0.40;;;;;;;;;;5018342;28;20218;-57
2023/10/30 08:27:14;;;;;;;0.50;0.40;;;;;;;;;;5017706;28;20206;-57
2023/10/30 08:29:43;;;;;;;0.57;0.40;;;;;;;;;;5017993;28;20208;-57
2023/10/30 08:32:10;;;;;;;0.70;0.43;;;;;;;;;;5017958;28;20293;-57
2023/10/30 08:34:38;;;;;;;0.55;0.45;;;;;;;;;;5017178;28;20217;-57
2023/10/30 08:37:06;;;;;;;0.63;0.45;;;;;;;;;;5016532;28;20234;-57
2023/10/30 08:39:33;;;;;;;0.65;0.43;;;;;;;;;;5016974;28;20221;-57
2023/10/30 08:42:00;;;;;;;0.93;0.50;;;;;;;;;;5017784;28;20210;-56
2023/10/30 08:44:28;;;;;;;0.60;0.50;;;;;;;;;;5017724;28;20227;-56
2023/10/30 08:46:56;;;;;;;0.35;0.35;;;;;;;;;;5017506;28;20637;-56
2023/10/30 08:49:24;;;;;;;0.73;0.40;;;;;;;;;;5017577;28;20210;-56
2023/10/30 08:51:51;;;;;;;1.05;0.50;;;;;;;;;;5017387;28;20238;-56
2023/10/30 08:54:19;;;;;;;1.50;0.50;;;;;;;;;;5016460;28;20691;-56
2023/10/30 08:56:46;;;;;;;0.88;0.70;;;;;;;;;;5016787;28;20232;-56
2023/10/30 08:59:14;;;;;;;0.68;0.40;;;;;;;;;;5016286;28;20202;-56
2023/10/30 09:01:42;;;;;;;1.30;0.50;;;;;;;;;;5016108;28;20207;-56
2023/10/30 09:04:11;;;;;;;1.58;0.40;;;;;;;;;;5015776;28;20240;-56
2023/10/30 09:06:38;;;;;;;1.00;0.60;;;;;;;;;;5016717;28;20264;-56
2023/10/30 09:09:06;;;;;;;0.80;0.43;;;;;;;;;;5016697;28;20210;-56
2023/10/30 09:11:33;;;;;;;0.70;0.50;;;;;;;;;;5016402;28;20206;-57
2023/10/30 09:14:01;;;;;;;1.23;0.47;;;;;;;;;;5015483;28;20273;-57
2023/10/30 09:16:28;;;;;;;1.20;0.55;;;;;;;;;;5016018;28;20225;-57
2023/10/30 09:18:56;;;;;;;1.33;0.50;;;;;;;;;;5015947;28;20212;-57
2023/10/30 09:21:24;;;;;;;1.52;0.50;;;;;;;;;;5016526;28;20272;-57
2023/10/30 09:23:52;;;;;;;0.65;0.40;;;;;;;;;;5026183;28;20315;-57
2023/10/30 09:26:19;;;;;;;0.77;0.50;;;;;;;;;;5036114;28;20229;-57
2023/10/30 09:28:47;;;;;;;1.85;0.70;;;;;;;;;;5036363;28;20205;-57
2023/10/30 09:31:14;;;;;;;1.92;0.60;;;;;;;;;;5036183;28;20227;-57
2023/10/30 09:33:42;;;;;;;1.50;0.60;;;;;;;;;;5036140;28;20213;-57
2023/10/30 09:36:09;;;;;;;1.45;0.95;;;;;;;;;;5035719;28;20828;-57
2023/10/30 09:38:38;;;;;;;0.73;0.40;;;;;;;;;;5035628;28;20212;-56
2023/10/30 09:41:07;;;;;;;2.05;0.63;;;;;;;;;;5036138;28;20224;-56
2023/10/30 09:43:37;;;;;;;0.82;0.35;;;;;;;;;;5035786;28;20224;-56
2023/10/30 09:46:06;;;;;;;1.00;0.60;;;;;;;;;;5035995;28;20205;-56
2023/10/30 09:48:34;;;;;;;2.42;0.60;;;;;;;;;;5036300;28;20317;-56
2023/10/30 09:51:02;;;;;;;1.30;0.93;;;;;;;;;;5035658;28;20241;-56
2023/10/30 09:53:30;;;;;;;2.88;0.70;;;;;;;;;;5034939;28;20213;-56
2023/10/30 09:55:59;;;;;;;2.40;0.70;;;;;;;;;;5035591;28;20209;-56
2023/10/30 09:58:27;;;;;;;1.42;0.50;;;;;;;;;;5035133;28;20229;-56
2023/10/30 10:00:54;;;;;;;0.70;0.52;;;;;;;;;;5035734;28;20202;-56
2023/10/30 10:03:21;;;;;;;1.35;0.50;;;;;;;;;;5034416;28;20616;-56
2023/10/30 10:05:58;;;;;;;1.25;0.70;;;;;;;;;;5035653;28;20206;-56
2023/10/30 10:08:26;;;;;;;1.60;0.70;;;;;;;;;;5035319;28;20193;-56
2023/10/30 10:10:59;;;;;;;2.85;0.80;;;;;;;;;;5035163;28;20205;-56
2023/10/30 10:13:27;;;;;;;1.20;0.70;;;;;;;;;;5035115;28;20296;-56
2023/10/30 10:15:54;;;;;;;1.77;0.65;;;;;;;;;;5033759;28;20205;-57
2023/10/30 10:18:26;;;;;;;2.45;0.80;;;;;;;;;;5034627;28;20228;-57
2023/10/30 10:20:58;;;;;;;1.75;0.90;;;;;;;;;;5034255;28;20280;-57
2023/10/30 10:23:26;;;;;;;1.35;0.93;;;;;;;;;;5035211;28;20202;-57
2023/10/30 10:25:55;;;;;;;1.35;0.70;;;;;;;;;;5033860;28;20260;-57
2023/10/30 10:28:24;;;;;;;2.08;0.80;;;;;;;;;;5034607;28;20213;-56
2023/10/30 10:30:53;;;;;;;1.58;0.82;;;;;;;;;;5035024;28;20212;-57
2023/10/30 10:33:21;;;;;;;1.98;0.82;;;;;;;;;;5034880;28;20225;-57
2023/10/30 10:35:53;;;;;;;3.53;1.00;;;;;;;;;;5034736;28;20206;-57
2023/10/30 10:38:21;;;;;;;2.13;1.00;;;;;;;;;;5033795;28;20275;-56
2023/10/30 10:40:48;;;;;;;2.20;0.70;;;;;;;;;;5033061;28;20212;-56
2023/10/30 10:43:18;;;;;;;3.00;1.08;;;;;;;;;;5035490;28;20201;-56
2023/10/30 10:45:47;;;;;;;2.05;0.88;;;;;;;;;;5038116;28;20209;-56
2023/10/30 10:48:14;;;;;;;4.22;0.90;;;;;;;;;;5038374;28;20263;-56
2023/10/30 10:50:42;;;;;;;1.40;1.05;;;;;;;;;;5037920;28;20204;-56
2023/10/30 10:53:11;;;;;;;3.42;0.93;;;;;;;;;;5036717;28;20285;-56
2023/10/30 10:55:42;;;;;;;2.78;1.00;;;;;;;;;;5017819;28;20206;-56
2023/10/30 10:58:10;;;;;;;1.40;1.00;;;;;;;;;;5017260;28;20269;-56
2023/10/30 11:00:39;;;;;;;1.52;0.90;;;;;;;;;;5017142;28;20206;-56
2023/10/30 11:03:09;;;;;;;2.95;0.90;;;;;;;;;;5018123;28;20206;-56
2023/10/30 11:05:37;;;;;;;1.90;0.90;;;;;;;;;;5017938;28;20230;-56
2023/10/30 11:08:09;;;;;;;2.15;0.70;;;;;;;;;;5018441;28;20202;-56
2023/10/30 11:10:38;;;;;;;2.22;0.85;;;;;;;;;;5018419;28;20699;-56
2023/10/30 11:13:11;;;;;;;2.78;1.13;;;;;;;;;;5017825;28;20217;-56
2023/10/30 11:15:40;;;;;;;3.17;1.05;;;;;;;;;;5018131;28;20206;-56
2023/10/30 11:18:21;;;;;;;2.40;0.90;;;;;;;;;;5018390;28;20226;-56
2023/10/30 11:20:49;;;;;;;3.28;1.00;;;;;;;;;;5017990;28;20212;-56
2023/10/30 11:23:36;;;;;;;1.10;0.80;;;;;;;;;;5018616;28;20508;-56
2023/10/30 11:26:03;;;;;;;2.30;0.95;;;;;;;;;;5016643;28;20498;-56
2023/10/30 11:28:35;;;;;;;1.42;0.80;;;;;;;;;;5016708;28;20214;-57
2023/10/30 11:31:08;;;;;;;2.72;0.90;;;;;;;;;;5017394;28;20218;-57
2023/10/30 11:33:37;;;;;;;2.10;1.00;;;;;;;;;;5016769;28;20210;-56
2023/10/30 11:36:23;;;;;;;1.25;0.80;;;;;;;;;;5016785;28;20202;-57
2023/10/30 11:39:09;;;;;;;1.58;0.90;;;;;;;;;;5017807;28;20230;-57
2023/10/30 11:41:37;;;;;;;1.50;0.70;;;;;;;;;;5017458;28;20202;-57
2023/10/30 11:44:09;;;;;;;3.40;1.10;;;;;;;;;;5017508;28;20217;-57
2023/10/30 11:46:41;;;;;;;1.73;0.90;;;;;;;;;;5017509;28;20206;-57
2023/10/30 11:49:10;;;;;;;2.38;1.08;;;;;;;;;;5017310;28;20494;-57
2023/10/30 11:51:38;;;;;;;1.38;1.00;;;;;;;;;;5017477;28;20268;-57
2023/10/30 11:54:05;;;;;;;1.33;0.85;;;;;;;;;;5016275;28;20212;-57
2023/10/30 11:56:32;;;;;;;1.55;0.80;;;;;;;;;;5016012;28;20583;-57
2023/10/30 11:59:01;;;;;;;3.15;1.15;;;;;;;;;;5017702;28;20230;-57
2023/10/30 12:01:28;;;;;;;1.60;1.00;;;;;;;;;;5016904;28;20203;-57
2023/10/30 12:03:55;;;;;;;3.25;1.08;;;;;;;;;;5017082;28;20206;-57
2023/10/30 12:06:26;;;;;;;1.40;0.80;;;;;;;;;;5016500;28;20206;-57
2023/10/30 12:08:53;;;;;;;1.42;0.90;;;;;;;;;;5017087;28;20202;-57
2023/10/30 12:11:22;;;;;;;1.85;1.05;;;;;;;;;;5017264;28;20207;-57
2023/10/30 12:13:50;;;;;;;1.20;1.00;;;;;;;;;;5016967;28;20207;-57
2023/10/30 12:16:17;;;;;;;1.38;1.02;;;;;;;;;;5016898;28;20641;-57
2023/10/30 12:18:44;;;;;;;1.30;0.88;;;;;;;;;;5017370;28;20234;-57
2023/10/30 12:21:11;;;;;;;0.80;0.70;;;;;;;;;;5017473;28;20476;-57
2023/10/30 12:23:49;;;;;;;1.98;0.85;;;;;;;;;;5017411;28;20206;-58
2023/10/30 12:26:17;;;;;;;2.63;0.60;;;;;;;;;;5017254;28;20206;-57
2023/10/30 12:28:44;;;;;;;1.13;0.70;;;;;;;;;;5017434;28;20686;-57
2023/10/30 12:31:19;;;;;;;1.20;0.90;;;;;;;;;;5017047;28;20211;-57
2023/10/30 12:33:46;;;;;;;2.00;1.08;;;;;;;;;;5016691;28;20205;-57
2023/10/30 12:36:13;;;;;;;1.83;0.90;;;;;;;;;;5016408;28;20213;-57
2023/10/30 12:38:41;;;;;;;1.50;1.05;;;;;;;;;;5015888;28;20234;-56
2023/10/30 12:41:10;;;;;;;1.30;0.85;;;;;;;;;;5016196;28;20225;-56
2023/10/30 12:43:40;;;;;;;1.05;0.73;;;;;;;;;;5016703;28;20206;-56
2023/10/30 12:46:08;;;;;;;1.88;0.70;;;;;;;;;;5015742;28;20206;-56
2023/10/30 12:48:35;;;;;;;1.38;0.88;;;;;;;;;;5015066;28;20202;-56
2023/10/30 12:51:03;;;;;;;1.10;0.80;;;;;;;;;;5015935;28;20629;-56
2023/10/30 12:53:30;;;;;;;2.38;0.98;;;;;;;;;;5016557;28;20318;-56
2023/10/30 12:55:58;;;;;;;1.30;0.80;;;;;;;;;;5016568;28;20222;-56
2023/10/30 12:58:27;;;;;;;1.80;0.80;;;;;;;;;;5015938;28;20237;-56
2023/10/30 13:01:01;;;;;;;1.23;0.82;;;;;;;;;;5016217;28;20548;-56
2023/10/30 13:03:28;;;;;;;2.25;0.80;;;;;;;;;;5015421;28;20245;-56
2023/10/30 13:05:56;;;;;;;1.02;0.80;;;;;;;;;;5015755;28;20207;-56
2023/10/30 13:08:23;;;;;;;1.17;0.80;;;;;;;;;;5015293;28;20201;-56
2023/10/30 13:10:51;;;;;;;1.25;0.90;;;;;;;;;;5014364;28;20206;-57
2023/10/30 13:13:18;;;;;;;1.13;0.88;;;;;;;;;;5015472;28;20206;-57
2023/10/30 13:15:47;;;;;;;0.90;0.80;;;;;;;;;;5015971;28;20206;-57
2023/10/30 13:18:14;;;;;;;1.65;0.95;;;;;;;;;;5015903;28;20236;-57
2023/10/30 13:20:42;;;;;;;1.77;0.70;;;;;;;;;;5015383;28;20213;-56
2023/10/30 13:23:09;;;;;;;2.17;0.80;;;;;;;;;;5015474;28;20217;-57
2023/10/30 13:25:37;;;;;;;1.00;0.82;;;;;;;;;;5014776;28;20378;-57
2023/10/30 13:28:04;;;;;;;2.78;0.73;;;;;;;;;;5015313;28;20229;-57
2023/10/30 13:30:31;;;;;;;1.10;0.80;;;;;;;;;;5015394;28;20478;-57
2023/10/30 13:33:00;;;;;;;1.45;1.02;;;;;;;;;;5015280;28;20208;-57
2023/10/30 13:35:28;;;;;;;1.23;0.82;;;;;;;;;;5015680;28;20747;-57
2023/10/30 13:37:55;;;;;;;1.27;1.00;;;;;;;;;;5015334;28;20649;-57
2023/10/30 13:40:24;;;;;;;0.80;0.80;;;;;;;;;;5015370;28;20206;-57
2023/10/30 13:42:51;;;;;;;0.90;0.75;;;;;;;;;;5014967;28;20644;-57
2023/10/30 13:45:19;;;;;;;1.88;0.80;;;;;;;;;;5014840;28;20202;-57
2023/10/30 13:47:47;;;;;;;1.60;0.80;;;;;;;;;;5015454;28;20206;-57
2023/10/30 13:50:15;;;;;;;2.20;0.85;;;;;;;;;;5014873;28;20237;-57
2023/10/30 13:52:43;;;;;;;0.90;0.80;;;;;;;;;;5015275;28;20230;-57
2023/10/30 13:55:10;;;;;;;1.30;0.80;;;;;;;;;;5014093;28;20213;-57
2023/10/30 13:57:38;;;;;;;0.80;0.60;;;;;;;;;;5014299;28;20198;-57
2023/10/30 14:00:06;;;;;;;1.98;0.73;;;;;;;;;;5014578;28;20218;-57
2023/10/30 14:02:34;;;;;;;0.88;0.77;;;;;;;;;;5014949;28;20202;-57
2023/10/30 14:05:01;;;;;;;1.25;0.90;;;;;;;;;;5014903;28;20202;-57
2023/10/30 14:07:30;;;;;;;0.70;0.70;;;;;;;;;;5014441;28;20264;-57
2023/10/30 14:09:59;;;;;;;1.30;0.80;;;;;;;;;;5014565;28;20277;-57
2023/10/30 14:12:27;;;;;;;1.40;1.00;;;;;;;;;;5014361;28;20210;-57
2023/10/30 14:14:55;;;;;;;1.15;0.70;;;;;;;;;;5013584;28;20206;-57
2023/10/30 14:17:23;;;;;;;0.95;0.82;;;;;;;;;;5014454;28;20210;-57
2023/10/30 14:19:50;;;;;;;1.08;0.80;;;;;;;;;;5014049;28;20226;-57
2023/10/30 14:22:20;;;;;;;1.30;0.88;;;;;;;;;;5014355;28;20241;-57
2023/10/30 14:24:49;;;;;;;0.77;0.60;;;;;;;;;;5013936;28;20233;-57
2023/10/30 14:27:16;;;;;;;1.05;0.90;;;;;;;;;;5013169;28;20212;-57
2023/10/30 14:29:44;;;;;;;1.83;1.20;;;;;;;;;;5013086;28;20210;-57
2023/10/30 14:32:11;;;;;;;1.35;1.00;;;;;;;;;;5014289;28;20594;-57
2023/10/30 14:34:38;;;;;;;2.83;0.85;;;;;;;;;;5013645;28;20202;-57
2023/10/30 14:37:06;;;;;;;2.13;0.98;;;;;;;;;;5014265;28;20206;-57
2023/10/30 14:39:33;;;;;;;1.67;0.90;;;;;;;;;;5014402;28;20225;-56
2023/10/30 14:42:02;;;;;;;1.42;1.00;;;;;;;;;;5027620;28;20217;-56
2023/10/30 14:44:30;;;;;;;1.13;0.82;;;;;;;;;;5033972;28;20206;-56
2023/10/30 14:46:57;;;;;;;1.20;0.90;;;;;;;;;;5034219;28;20240;-57
2023/10/30 14:49:24;;;;;;;1.67;0.93;;;;;;;;;;5033803;28;20300;-57